sensor_id;sensor_type;location;lat;lon;timestamp;P1;durP1;ratioP1;P2;durP2;ratioP2
64199;SDS011;50516;52.272;5.136;2023-01-20T00:01:27;6.60;;;5.03;;
64199;SDS011;50516;52.272;5.136;2023-01-20T00:03:53;6.43;;;5.43;;
64199;SDS011;50516;52.272;5.136;2023-01-20T00:06:20;7.18;;;5.28;;
64199;SDS011;50516;52.272;5.136;2023-01-20T00:08:50;9.82;;;5.43;;
64199;SDS011;50516;52.272;5.136;2023-01-20T00:11:16;6.95;;;5.43;;
64199;SDS011;50516;52.272;5.136;2023-01-20T00:13:41;7.38;;;5.93;;
64199;SDS011;50516;52.272;5.136;2023-01-20T00:16:07;8.95;;;6.07;;
64199;SDS011;50516;52.272;5.136;2023-01-20T00:18:35;7.10;;;5.80;;
64199;SDS011;50516;52.272;5.136;2023-01-20T00:21:04;9.10;;;5.78;;
64199;SDS011;50516;52.272;5.136;2023-01-20T00:23:31;7.68;;;6.15;;
64199;SDS011;50516;52.272;5.136;2023-01-20T00:25:57;7.18;;;5.93;;
64199;SDS011;50516;52.272;5.136;2023-01-20T00:28:22;8.55;;;6.55;;
64199;SDS011;50516;52.272;5.136;2023-01-20T00:30:47;8.25;;;7.28;;
64199;SDS011;50516;52.272;5.136;2023-01-20T00:33:13;8.98;;;7.32;;
64199;SDS011;50516;52.272;5.136;2023-01-20T00:35:38;8.80;;;7.03;;
64199;SDS011;50516;52.272;5.136;2023-01-20T00:38:03;10.18;;;7.15;;
64199;SDS011;50516;52.272;5.136;2023-01-20T00:40:29;12.38;;;7.55;;
64199;SDS011;50516;52.272;5.136;2023-01-20T00:42:54;11.93;;;7.55;;
64199;SDS011;50516;52.272;5.136;2023-01-20T00:45:19;12.80;;;9.10;;
64199;SDS011;50516;52.272;5.136;2023-01-20T00:47:45;11.30;;;8.38;;
64199;SDS011;50516;52.272;5.136;2023-01-20T00:50:10;10.15;;;7.88;;
64199;SDS011;50516;52.272;5.136;2023-01-20T00:52:35;12.48;;;7.82;;
64199;SDS011;50516;52.272;5.136;2023-01-20T00:55:01;10.95;;;7.72;;
64199;SDS011;50516;52.272;5.136;2023-01-20T00:57:26;14.82;;;8.07;;
64199;SDS011;50516;52.272;5.136;2023-01-20T00:59:52;13.15;;;7.85;;
64199;SDS011;50516;52.272;5.136;2023-01-20T01:02:17;11.57;;;8.50;;
64199;SDS011;50516;52.272;5.136;2023-01-20T01:04:43;10.68;;;8.43;;
64199;SDS011;50516;52.272;5.136;2023-01-20T01:07:08;12.23;;;9.20;;
64199;SDS011;50516;52.272;5.136;2023-01-20T01:09:33;12.27;;;8.80;;
64199;SDS011;50516;52.272;5.136;2023-01-20T01:11:59;11.45;;;8.15;;
64199;SDS011;50516;52.272;5.136;2023-01-20T01:14:24;11.80;;;8.13;;
64199;SDS011;50516;52.272;5.136;2023-01-20T01:16:50;11.60;;;7.95;;
64199;SDS011;50516;52.272;5.136;2023-01-20T01:19:18;11.48;;;8.93;;
64199;SDS011;50516;52.272;5.136;2023-01-20T01:21:44;9.25;;;7.22;;
64199;SDS011;50516;52.272;5.136;2023-01-20T01:24:09;10.88;;;8.57;;
64199;SDS011;50516;52.272;5.136;2023-01-20T01:26:35;13.02;;;9.32;;
64199;SDS011;50516;52.272;5.136;2023-01-20T01:29:00;15.63;;;10.20;;
64199;SDS011;50516;52.272;5.136;2023-01-20T01:31:25;17.98;;;10.32;;
64199;SDS011;50516;52.272;5.136;2023-01-20T01:33:51;18.08;;;10.52;;
64199;SDS011;50516;52.272;5.136;2023-01-20T01:36:16;14.43;;;10.57;;
64199;SDS011;50516;52.272;5.136;2023-01-20T01:38:56;17.55;;;12.13;;
64199;SDS011;50516;52.272;5.136;2023-01-20T01:41:22;18.80;;;13.20;;
64199;SDS011;50516;52.272;5.136;2023-01-20T01:44:04;20.17;;;13.68;;
64199;SDS011;50516;52.272;5.136;2023-01-20T01:46:34;19.52;;;14.27;;
64199;SDS011;50516;52.272;5.136;2023-01-20T01:49:01;19.63;;;13.40;;
64199;SDS011;50516;52.272;5.136;2023-01-20T01:51:34;20.17;;;13.65;;
64199;SDS011;50516;52.272;5.136;2023-01-20T01:54:13;18.55;;;13.50;;
64199;SDS011;50516;52.272;5.136;2023-01-20T01:56:41;22.20;;;14.23;;
64199;SDS011;50516;52.272;5.136;2023-01-20T01:59:08;22.33;;;14.13;;
64199;SDS011;50516;52.272;5.136;2023-01-20T02:01:37;20.10;;;14.05;;
64199;SDS011;50516;52.272;5.136;2023-01-20T02:04:09;24.67;;;14.68;;
64199;SDS011;50516;52.272;5.136;2023-01-20T02:06:37;22.85;;;16.08;;
64199;SDS011;50516;52.272;5.136;2023-01-20T02:09:05;23.67;;;15.63;;
64199;SDS011;50516;52.272;5.136;2023-01-20T02:11:33;25.60;;;17.58;;
64199;SDS011;50516;52.272;5.136;2023-01-20T02:14:02;27.77;;;17.73;;
64199;SDS011;50516;52.272;5.136;2023-01-20T02:19:24;30.83;;;20.17;;
64199;SDS011;50516;52.272;5.136;2023-01-20T02:22:09;37.05;;;22.27;;
64199;SDS011;50516;52.272;5.136;2023-01-20T02:24:58;35.03;;;21.08;;
64199;SDS011;50516;52.272;5.136;2023-01-20T02:35:57;41.47;;;23.95;;
64199;SDS011;50516;52.272;5.136;2023-01-20T02:44:19;41.85;;;22.92;;
64199;SDS011;50516;52.272;5.136;2023-01-20T02:46:52;40.25;;;23.02;;
64199;SDS011;50516;52.272;5.136;2023-01-20T02:49:35;38.42;;;23.38;;
64199;SDS011;50516;52.272;5.136;2023-01-20T02:52:12;42.38;;;22.92;;
64199;SDS011;50516;52.272;5.136;2023-01-20T02:54:41;40.63;;;23.77;;
64199;SDS011;50516;52.272;5.136;2023-01-20T02:57:13;39.67;;;23.52;;
64199;SDS011;50516;52.272;5.136;2023-01-20T02:59:41;39.92;;;23.75;;
64199;SDS011;50516;52.272;5.136;2023-01-20T03:02:16;39.80;;;22.40;;
64199;SDS011;50516;52.272;5.136;2023-01-20T03:04:46;40.08;;;24.55;;
64199;SDS011;50516;52.272;5.136;2023-01-20T03:07:17;40.17;;;22.77;;
64199;SDS011;50516;52.272;5.136;2023-01-20T03:09:49;36.30;;;22.05;;
64199;SDS011;50516;52.272;5.136;2023-01-20T03:12:19;34.55;;;21.77;;
64199;SDS011;50516;52.272;5.136;2023-01-20T03:14:48;35.75;;;20.77;;
64199;SDS011;50516;52.272;5.136;2023-01-20T03:17:16;33.90;;;20.77;;
64199;SDS011;50516;52.272;5.136;2023-01-20T03:19:41;38.50;;;20.90;;
64199;SDS011;50516;52.272;5.136;2023-01-20T03:22:07;36.90;;;21.50;;
64199;SDS011;50516;52.272;5.136;2023-01-20T03:24:32;34.50;;;19.48;;
64199;SDS011;50516;52.272;5.136;2023-01-20T03:27:01;34.55;;;21.17;;
64199;SDS011;50516;52.272;5.136;2023-01-20T03:29:27;35.53;;;20.52;;
64199;SDS011;50516;52.272;5.136;2023-01-20T03:31:55;30.52;;;17.98;;
64199;SDS011;50516;52.272;5.136;2023-01-20T03:34:24;32.33;;;19.00;;
64199;SDS011;50516;52.272;5.136;2023-01-20T03:36:51;37.10;;;20.00;;
64199;SDS011;50516;52.272;5.136;2023-01-20T03:39:18;32.47;;;19.65;;
64199;SDS011;50516;52.272;5.136;2023-01-20T03:47:14;35.83;;;20.05;;
64199;SDS011;50516;52.272;5.136;2023-01-20T03:50:06;36.53;;;19.88;;
64199;SDS011;50516;52.272;5.136;2023-01-20T03:55:42;32.30;;;19.05;;
64199;SDS011;50516;52.272;5.136;2023-01-20T04:00:43;36.55;;;20.65;;
64199;SDS011;50516;52.272;5.136;2023-01-20T04:03:12;33.65;;;21.17;;
64199;SDS011;50516;52.272;5.136;2023-01-20T04:05:41;33.95;;;19.17;;
64199;SDS011;50516;52.272;5.136;2023-01-20T04:08:08;36.08;;;19.90;;
64199;SDS011;50516;52.272;5.136;2023-01-20T04:10:37;37.70;;;20.30;;
64199;SDS011;50516;52.272;5.136;2023-01-20T04:13:05;34.25;;;20.55;;
64199;SDS011;50516;52.272;5.136;2023-01-20T04:15:34;41.75;;;22.17;;
64199;SDS011;50516;52.272;5.136;2023-01-20T04:18:37;37.22;;;19.92;;
64199;SDS011;50516;52.272;5.136;2023-01-20T04:21:01;37.60;;;20.52;;
64199;SDS011;50516;52.272;5.136;2023-01-20T04:23:31;36.17;;;21.77;;
64199;SDS011;50516;52.272;5.136;2023-01-20T04:26:03;36.95;;;21.45;;
64199;SDS011;50516;52.272;5.136;2023-01-20T04:28:28;38.08;;;21.75;;
64199;SDS011;50516;52.272;5.136;2023-01-20T04:30:54;42.00;;;22.88;;
64199;SDS011;50516;52.272;5.136;2023-01-20T04:33:19;43.42;;;24.25;;
64199;SDS011;50516;52.272;5.136;2023-01-20T04:35:44;40.78;;;22.77;;
64199;SDS011;50516;52.272;5.136;2023-01-20T04:38:10;40.15;;;21.88;;
64199;SDS011;50516;52.272;5.136;2023-01-20T04:40:35;39.03;;;22.00;;
64199;SDS011;50516;52.272;5.136;2023-01-20T04:43:01;41.38;;;24.42;;
64199;SDS011;50516;52.272;5.136;2023-01-20T04:45:26;35.78;;;21.95;;
64199;SDS011;50516;52.272;5.136;2023-01-20T04:47:51;38.22;;;22.50;;
64199;SDS011;50516;52.272;5.136;2023-01-20T04:50:17;36.20;;;21.70;;
64199;SDS011;50516;52.272;5.136;2023-01-20T04:52:42;39.92;;;22.75;;
64199;SDS011;50516;52.272;5.136;2023-01-20T04:55:08;40.95;;;22.52;;
64199;SDS011;50516;52.272;5.136;2023-01-20T04:57:35;40.00;;;21.95;;
64199;SDS011;50516;52.272;5.136;2023-01-20T05:00:00;40.40;;;22.67;;
64199;SDS011;50516;52.272;5.136;2023-01-20T05:02:25;42.80;;;23.63;;
64199;SDS011;50516;52.272;5.136;2023-01-20T05:04:51;39.58;;;23.17;;
64199;SDS011;50516;52.272;5.136;2023-01-20T05:07:16;44.92;;;23.27;;
64199;SDS011;50516;52.272;5.136;2023-01-20T05:09:41;40.80;;;22.70;;
64199;SDS011;50516;52.272;5.136;2023-01-20T05:12:07;41.15;;;22.90;;
64199;SDS011;50516;52.272;5.136;2023-01-20T05:14:32;43.05;;;25.23;;
64199;SDS011;50516;52.272;5.136;2023-01-20T05:16:58;43.17;;;24.55;;
64199;SDS011;50516;52.272;5.136;2023-01-20T05:19:23;38.22;;;23.40;;
64199;SDS011;50516;52.272;5.136;2023-01-20T05:21:48;42.50;;;25.02;;
64199;SDS011;50516;52.272;5.136;2023-01-20T05:24:14;46.00;;;25.15;;
64199;SDS011;50516;52.272;5.136;2023-01-20T05:26:39;43.63;;;25.55;;
64199;SDS011;50516;52.272;5.136;2023-01-20T05:29:04;53.00;;;25.83;;
64199;SDS011;50516;52.272;5.136;2023-01-20T05:31:30;42.88;;;25.55;;
64199;SDS011;50516;52.272;5.136;2023-01-20T05:33:55;49.30;;;27.15;;
64199;SDS011;50516;52.272;5.136;2023-01-20T05:36:20;42.78;;;24.63;;
64199;SDS011;50516;52.272;5.136;2023-01-20T05:38:46;48.40;;;25.58;;
64199;SDS011;50516;52.272;5.136;2023-01-20T05:41:11;54.90;;;27.27;;
64199;SDS011;50516;52.272;5.136;2023-01-20T05:43:36;51.88;;;27.17;;
64199;SDS011;50516;52.272;5.136;2023-01-20T05:46:02;52.92;;;27.02;;
64199;SDS011;50516;52.272;5.136;2023-01-20T05:48:28;49.38;;;26.05;;
64199;SDS011;50516;52.272;5.136;2023-01-20T05:50:54;56.97;;;28.55;;
64199;SDS011;50516;52.272;5.136;2023-01-20T05:53:20;46.42;;;27.08;;
64199;SDS011;50516;52.272;5.136;2023-01-20T05:55:45;52.13;;;28.52;;
64199;SDS011;50516;52.272;5.136;2023-01-20T05:58:11;49.63;;;26.63;;
64199;SDS011;50516;52.272;5.136;2023-01-20T06:00:37;53.25;;;27.55;;
64199;SDS011;50516;52.272;5.136;2023-01-20T06:03:02;54.00;;;29.45;;
64199;SDS011;50516;52.272;5.136;2023-01-20T06:05:28;57.15;;;30.15;;
64199;SDS011;50516;52.272;5.136;2023-01-20T06:07:53;53.65;;;29.73;;
64199;SDS011;50516;52.272;5.136;2023-01-20T06:10:20;57.38;;;28.90;;
64199;SDS011;50516;52.272;5.136;2023-01-20T06:12:52;49.53;;;27.00;;
64199;SDS011;50516;52.272;5.136;2023-01-20T06:15:21;48.15;;;26.20;;
64199;SDS011;50516;52.272;5.136;2023-01-20T06:17:48;45.90;;;26.13;;
64199;SDS011;50516;52.272;5.136;2023-01-20T06:20:15;47.88;;;26.67;;
64199;SDS011;50516;52.272;5.136;2023-01-20T06:22:40;47.97;;;25.55;;
64199;SDS011;50516;52.272;5.136;2023-01-20T06:25:06;47.13;;;25.65;;
64199;SDS011;50516;52.272;5.136;2023-01-20T06:27:32;43.88;;;24.20;;
64199;SDS011;50516;52.272;5.136;2023-01-20T06:29:57;49.20;;;25.80;;
64199;SDS011;50516;52.272;5.136;2023-01-20T06:32:22;49.85;;;27.33;;
64199;SDS011;50516;52.272;5.136;2023-01-20T06:34:48;45.92;;;25.50;;
64199;SDS011;50516;52.272;5.136;2023-01-20T06:37:13;46.13;;;27.33;;
64199;SDS011;50516;52.272;5.136;2023-01-20T06:39:39;48.67;;;26.38;;
64199;SDS011;50516;52.272;5.136;2023-01-20T06:42:04;51.10;;;28.10;;
64199;SDS011;50516;52.272;5.136;2023-01-20T06:44:31;54.20;;;28.92;;
64199;SDS011;50516;52.272;5.136;2023-01-20T06:46:58;55.63;;;28.13;;
64199;SDS011;50516;52.272;5.136;2023-01-20T06:49:23;53.78;;;29.55;;
64199;SDS011;50516;52.272;5.136;2023-01-20T06:51:49;66.15;;;31.50;;
64199;SDS011;50516;52.272;5.136;2023-01-20T06:54:14;61.88;;;30.45;;
64199;SDS011;50516;52.272;5.136;2023-01-20T06:56:40;59.45;;;31.30;;
64199;SDS011;50516;52.272;5.136;2023-01-20T06:59:06;59.83;;;31.13;;
64199;SDS011;50516;52.272;5.136;2023-01-20T07:01:31;62.63;;;30.30;;
64199;SDS011;50516;52.272;5.136;2023-01-20T07:03:57;64.60;;;32.83;;
64199;SDS011;50516;52.272;5.136;2023-01-20T07:06:32;61.97;;;31.48;;
64199;SDS011;50516;52.272;5.136;2023-01-20T07:09:05;62.75;;;31.08;;
64199;SDS011;50516;52.272;5.136;2023-01-20T07:11:33;64.00;;;31.90;;
64199;SDS011;50516;52.272;5.136;2023-01-20T07:14:00;71.22;;;34.30;;
64199;SDS011;50516;52.272;5.136;2023-01-20T07:16:26;67.40;;;33.40;;
64199;SDS011;50516;52.272;5.136;2023-01-20T07:18:51;62.70;;;32.47;;
64199;SDS011;50516;52.272;5.136;2023-01-20T07:21:17;66.15;;;33.88;;
64199;SDS011;50516;52.272;5.136;2023-01-20T07:23:43;61.45;;;32.08;;
64199;SDS011;50516;52.272;5.136;2023-01-20T07:26:10;56.38;;;29.63;;
64199;SDS011;50516;52.272;5.136;2023-01-20T07:28:38;68.25;;;33.90;;
64199;SDS011;50516;52.272;5.136;2023-01-20T07:33:29;62.92;;;32.00;;
64199;SDS011;50516;52.272;5.136;2023-01-20T07:35:55;62.63;;;32.47;;
64199;SDS011;50516;52.272;5.136;2023-01-20T07:38:20;64.80;;;31.52;;
64199;SDS011;50516;52.272;5.136;2023-01-20T07:40:46;64.07;;;33.40;;
64199;SDS011;50516;52.272;5.136;2023-01-20T07:43:11;66.97;;;32.53;;
64199;SDS011;50516;52.272;5.136;2023-01-20T07:45:36;62.25;;;31.58;;
64199;SDS011;50516;52.272;5.136;2023-01-20T07:48:02;63.15;;;32.45;;
64199;SDS011;50516;52.272;5.136;2023-01-20T07:50:28;60.28;;;29.67;;
64199;SDS011;50516;52.272;5.136;2023-01-20T07:52:53;58.58;;;29.88;;
64199;SDS011;50516;52.272;5.136;2023-01-20T07:55:19;59.47;;;31.90;;
64199;SDS011;50516;52.272;5.136;2023-01-20T07:57:44;65.68;;;31.88;;
64199;SDS011;50516;52.272;5.136;2023-01-20T08:00:10;65.60;;;31.73;;
64199;SDS011;50516;52.272;5.136;2023-01-20T08:02:38;62.67;;;32.75;;
64199;SDS011;50516;52.272;5.136;2023-01-20T08:05:04;66.75;;;31.67;;
64199;SDS011;50516;52.272;5.136;2023-01-20T08:07:30;61.78;;;33.00;;
64199;SDS011;50516;52.272;5.136;2023-01-20T08:09:55;60.40;;;32.47;;
64199;SDS011;50516;52.272;5.136;2023-01-20T08:12:21;63.67;;;30.30;;
64199;SDS011;50516;52.272;5.136;2023-01-20T08:14:47;60.88;;;31.10;;
64199;SDS011;50516;52.272;5.136;2023-01-20T08:17:13;60.28;;;30.27;;
64199;SDS011;50516;52.272;5.136;2023-01-20T08:19:38;66.18;;;31.20;;
64199;SDS011;50516;52.272;5.136;2023-01-20T08:22:03;58.92;;;31.67;;
64199;SDS011;50516;52.272;5.136;2023-01-20T08:24:29;55.97;;;30.00;;
64199;SDS011;50516;52.272;5.136;2023-01-20T08:26:54;54.85;;;29.90;;
64199;SDS011;50516;52.272;5.136;2023-01-20T08:29:19;59.55;;;29.88;;
64199;SDS011;50516;52.272;5.136;2023-01-20T08:31:45;54.72;;;28.90;;
64199;SDS011;50516;52.272;5.136;2023-01-20T08:34:10;56.25;;;29.88;;
64199;SDS011;50516;52.272;5.136;2023-01-20T08:36:36;52.88;;;28.08;;
64199;SDS011;50516;52.272;5.136;2023-01-20T08:39:05;57.00;;;30.95;;
64199;SDS011;50516;52.272;5.136;2023-01-20T08:41:34;54.65;;;29.75;;
64199;SDS011;50516;52.272;5.136;2023-01-20T08:44:02;53.35;;;28.60;;
64199;SDS011;50516;52.272;5.136;2023-01-20T08:46:29;52.47;;;29.25;;
64199;SDS011;50516;52.272;5.136;2023-01-20T08:48:55;53.08;;;28.92;;
64199;SDS011;50516;52.272;5.136;2023-01-20T08:51:21;51.90;;;30.73;;
64199;SDS011;50516;52.272;5.136;2023-01-20T08:53:49;52.97;;;28.25;;
64199;SDS011;50516;52.272;5.136;2023-01-20T08:56:15;54.20;;;28.60;;
64199;SDS011;50516;52.272;5.136;2023-01-20T08:58:41;52.80;;;28.63;;
64199;SDS011;50516;52.272;5.136;2023-01-20T09:01:08;56.20;;;29.00;;
64199;SDS011;50516;52.272;5.136;2023-01-20T09:03:35;51.75;;;28.08;;
64199;SDS011;50516;52.272;5.136;2023-01-20T09:06:01;54.20;;;28.02;;
64199;SDS011;50516;52.272;5.136;2023-01-20T09:08:27;46.85;;;25.52;;
64199;SDS011;50516;52.272;5.136;2023-01-20T09:10:53;46.78;;;25.33;;
64199;SDS011;50516;52.272;5.136;2023-01-20T09:13:21;51.17;;;28.25;;
64199;SDS011;50516;52.272;5.136;2023-01-20T09:15:50;45.60;;;26.23;;
64199;SDS011;50516;52.272;5.136;2023-01-20T09:18:16;47.90;;;25.38;;
64199;SDS011;50516;52.272;5.136;2023-01-20T09:20:41;49.72;;;27.05;;
64199;SDS011;50516;52.272;5.136;2023-01-20T09:23:07;46.38;;;25.95;;
64199;SDS011;50516;52.272;5.136;2023-01-20T09:25:32;42.97;;;24.73;;
64199;SDS011;50516;52.272;5.136;2023-01-20T09:28:00;49.72;;;25.42;;
64199;SDS011;50516;52.272;5.136;2023-01-20T09:30:26;42.20;;;23.42;;
64199;SDS011;50516;52.272;5.136;2023-01-20T09:32:52;39.88;;;23.38;;
64199;SDS011;50516;52.272;5.136;2023-01-20T09:35:20;41.85;;;24.50;;
64199;SDS011;50516;52.272;5.136;2023-01-20T09:37:45;40.88;;;22.25;;
64199;SDS011;50516;52.272;5.136;2023-01-20T09:41:15;37.38;;;22.33;;
64199;SDS011;50516;52.272;5.136;2023-01-20T09:43:58;37.45;;;23.20;;
64199;SDS011;50516;52.272;5.136;2023-01-20T09:54:43;39.80;;;21.02;;
64199;SDS011;50516;52.272;5.136;2023-01-20T09:57:13;35.42;;;22.10;;
64199;SDS011;50516;52.272;5.136;2023-01-20T09:59:43;33.97;;;20.98;;
64199;SDS011;50516;52.272;5.136;2023-01-20T10:02:25;30.83;;;19.90;;
64199;SDS011;50516;52.272;5.136;2023-01-20T10:04:58;35.40;;;20.65;;
64199;SDS011;50516;52.272;5.136;2023-01-20T10:07:33;29.70;;;19.83;;
64199;SDS011;50516;52.272;5.136;2023-01-20T10:10:20;32.50;;;19.48;;
64199;SDS011;50516;52.272;5.136;2023-01-20T10:13:10;29.05;;;19.23;;
64199;SDS011;50516;52.272;5.136;2023-01-20T10:15:41;30.05;;;19.20;;
64199;SDS011;50516;52.272;5.136;2023-01-20T10:18:38;26.33;;;17.40;;
64199;SDS011;50516;52.272;5.136;2023-01-20T10:21:15;28.85;;;18.20;;
64199;SDS011;50516;52.272;5.136;2023-01-20T10:29:14;25.05;;;16.02;;
64199;SDS011;50516;52.272;5.136;2023-01-20T10:31:52;23.73;;;15.35;;
64199;SDS011;50516;52.272;5.136;2023-01-20T10:34:23;22.55;;;14.93;;
64199;SDS011;50516;52.272;5.136;2023-01-20T10:36:56;24.02;;;14.85;;
64199;SDS011;50516;52.272;5.136;2023-01-20T10:42:17;20.80;;;14.90;;
64199;SDS011;50516;52.272;5.136;2023-01-20T10:44:43;20.20;;;14.02;;
64199;SDS011;50516;52.272;5.136;2023-01-20T10:47:14;19.63;;;14.15;;
64199;SDS011;50516;52.272;5.136;2023-01-20T10:55:31;18.08;;;12.70;;
64199;SDS011;50516;52.272;5.136;2023-01-20T11:00:49;18.30;;;13.05;;
64199;SDS011;50516;52.272;5.136;2023-01-20T11:03:16;17.08;;;12.52;;
64199;SDS011;50516;52.272;5.136;2023-01-20T11:05:44;16.05;;;12.48;;
64199;SDS011;50516;52.272;5.136;2023-01-20T11:08:18;16.77;;;11.85;;
64199;SDS011;50516;52.272;5.136;2023-01-20T11:10:46;18.60;;;12.10;;
64199;SDS011;50516;52.272;5.136;2023-01-20T11:13:15;16.35;;;11.85;;
64199;SDS011;50516;52.272;5.136;2023-01-20T11:15:45;15.27;;;10.88;;
64199;SDS011;50516;52.272;5.136;2023-01-20T11:20:47;15.80;;;11.43;;
64199;SDS011;50516;52.272;5.136;2023-01-20T11:25:54;14.23;;;10.82;;
64199;SDS011;50516;52.272;5.136;2023-01-20T11:28:20;14.52;;;10.43;;
64199;SDS011;50516;52.272;5.136;2023-01-20T11:30:51;15.02;;;10.52;;
64199;SDS011;50516;52.272;5.136;2023-01-20T11:33:23;14.32;;;10.48;;
64199;SDS011;50516;52.272;5.136;2023-01-20T11:38:49;13.52;;;9.45;;
64199;SDS011;50516;52.272;5.136;2023-01-20T11:41:19;12.52;;;9.25;;
64199;SDS011;50516;52.272;5.136;2023-01-20T11:43:47;14.65;;;10.52;;
64199;SDS011;50516;52.272;5.136;2023-01-20T11:46:29;13.68;;;9.43;;
64199;SDS011;50516;52.272;5.136;2023-01-20T11:51:43;11.13;;;8.55;;
64199;SDS011;50516;52.272;5.136;2023-01-20T11:54:14;12.43;;;9.65;;
64199;SDS011;50516;52.272;5.136;2023-01-20T11:56:45;11.95;;;9.23;;
64199;SDS011;50516;52.272;5.136;2023-01-20T11:59:20;12.73;;;9.18;;
64199;SDS011;50516;52.272;5.136;2023-01-20T12:01:57;13.88;;;8.60;;
64199;SDS011;50516;52.272;5.136;2023-01-20T12:07:06;11.90;;;7.80;;
64199;SDS011;50516;52.272;5.136;2023-01-20T12:09:37;12.15;;;8.57;;
64199;SDS011;50516;52.272;5.136;2023-01-20T12:15:01;10.70;;;7.70;;
64199;SDS011;50516;52.272;5.136;2023-01-20T12:17:37;11.07;;;8.43;;
64199;SDS011;50516;52.272;5.136;2023-01-20T12:22:59;10.73;;;7.93;;
64199;SDS011;50516;52.272;5.136;2023-01-20T12:25:42;11.48;;;7.70;;
64199;SDS011;50516;52.272;5.136;2023-01-20T12:28:16;10.43;;;7.93;;
64199;SDS011;50516;52.272;5.136;2023-01-20T12:30:58;10.70;;;7.95;;
64199;SDS011;50516;52.272;5.136;2023-01-20T12:33:31;10.68;;;8.18;;
64199;SDS011;50516;52.272;5.136;2023-01-20T12:38:33;13.05;;;8.30;;
64199;SDS011;50516;52.272;5.136;2023-01-20T12:41:07;11.02;;;7.82;;
64199;SDS011;50516;52.272;5.136;2023-01-20T12:46:40;12.80;;;8.95;;
64199;SDS011;50516;52.272;5.136;2023-01-20T12:49:31;11.70;;;8.25;;
64199;SDS011;50516;52.272;5.136;2023-01-20T13:01:08;13.55;;;10.10;;
64199;SDS011;50516;52.272;5.136;2023-01-20T13:04:04;12.15;;;9.18;;
64199;SDS011;50516;52.272;5.136;2023-01-20T13:12:40;13.98;;;10.25;;
64199;SDS011;50516;52.272;5.136;2023-01-20T13:18:05;15.77;;;11.45;;
64199;SDS011;50516;52.272;5.136;2023-01-20T13:20:45;16.00;;;11.70;;
64199;SDS011;50516;52.272;5.136;2023-01-20T13:23:12;17.85;;;11.95;;
64199;SDS011;50516;52.272;5.136;2023-01-20T13:25:40;15.60;;;11.43;;
64199;SDS011;50516;52.272;5.136;2023-01-20T13:28:27;18.65;;;12.68;;
64199;SDS011;50516;52.272;5.136;2023-01-20T13:30:54;18.23;;;12.57;;
64199;SDS011;50516;52.272;5.136;2023-01-20T13:35:58;18.98;;;13.15;;
64199;SDS011;50516;52.272;5.136;2023-01-20T13:38:36;21.40;;;14.43;;
64199;SDS011;50516;52.272;5.136;2023-01-20T13:41:03;17.83;;;12.70;;
64199;SDS011;50516;52.272;5.136;2023-01-20T13:43:33;20.95;;;13.60;;
64199;SDS011;50516;52.272;5.136;2023-01-20T13:48:29;20.67;;;14.25;;
64199;SDS011;50516;52.272;5.136;2023-01-20T13:53:40;22.67;;;14.60;;
64199;SDS011;50516;52.272;5.136;2023-01-20T13:56:25;20.58;;;14.25;;
64199;SDS011;50516;52.272;5.136;2023-01-20T13:58:52;23.65;;;15.40;;
64199;SDS011;50516;52.272;5.136;2023-01-20T14:01:18;20.50;;;14.25;;
64199;SDS011;50516;52.272;5.136;2023-01-20T14:03:44;21.75;;;14.73;;
64199;SDS011;50516;52.272;5.136;2023-01-20T14:06:31;24.85;;;17.15;;
64199;SDS011;50516;52.272;5.136;2023-01-20T14:08:59;28.10;;;18.08;;
64199;SDS011;50516;52.272;5.136;2023-01-20T14:11:26;27.23;;;16.90;;
64199;SDS011;50516;52.272;5.136;2023-01-20T14:13:57;26.17;;;17.33;;
64199;SDS011;50516;52.272;5.136;2023-01-20T14:16:26;27.10;;;17.05;;
64199;SDS011;50516;52.272;5.136;2023-01-20T14:22:23;31.15;;;18.77;;
64199;SDS011;50516;52.272;5.136;2023-01-20T14:24:51;27.58;;;17.95;;
64199;SDS011;50516;52.272;5.136;2023-01-20T14:27:23;29.33;;;18.25;;
64199;SDS011;50516;52.272;5.136;2023-01-20T14:29:52;23.90;;;15.77;;
64199;SDS011;50516;52.272;5.136;2023-01-20T14:32:23;28.65;;;18.77;;
64199;SDS011;50516;52.272;5.136;2023-01-20T14:34:53;29.30;;;18.13;;
64199;SDS011;50516;52.272;5.136;2023-01-20T14:37:27;25.90;;;17.60;;
64199;SDS011;50516;52.272;5.136;2023-01-20T14:39:52;26.48;;;16.25;;
64199;SDS011;50516;52.272;5.136;2023-01-20T14:42:21;26.90;;;17.30;;
64199;SDS011;50516;52.272;5.136;2023-01-20T14:44:48;29.30;;;18.65;;
64199;SDS011;50516;52.272;5.136;2023-01-20T14:47:15;25.50;;;17.48;;
64199;SDS011;50516;52.272;5.136;2023-01-20T14:49:43;29.23;;;18.05;;
64199;SDS011;50516;52.272;5.136;2023-01-20T14:52:12;25.65;;;17.00;;
64199;SDS011;50516;52.272;5.136;2023-01-20T14:54:45;27.02;;;17.65;;
64199;SDS011;50516;52.272;5.136;2023-01-20T14:57:17;30.05;;;18.20;;
64199;SDS011;50516;52.272;5.136;2023-01-20T14:59:44;27.05;;;17.20;;
64199;SDS011;50516;52.272;5.136;2023-01-20T15:02:43;25.95;;;17.85;;
64199;SDS011;50516;52.272;5.136;2023-01-20T15:05:11;27.65;;;17.65;;
64199;SDS011;50516;52.272;5.136;2023-01-20T15:07:42;25.15;;;15.90;;
64199;SDS011;50516;52.272;5.136;2023-01-20T15:10:10;28.63;;;17.60;;
64199;SDS011;50516;52.272;5.136;2023-01-20T15:12:51;31.08;;;17.50;;
64199;SDS011;50516;52.272;5.136;2023-01-20T15:20:41;29.08;;;16.85;;
64199;SDS011;50516;52.272;5.136;2023-01-20T15:23:11;23.38;;;16.20;;
64199;SDS011;50516;52.272;5.136;2023-01-20T15:25:41;24.55;;;16.17;;
64199;SDS011;50516;52.272;5.136;2023-01-20T15:28:16;29.27;;;16.02;;
64199;SDS011;50516;52.272;5.136;2023-01-20T15:30:44;22.00;;;15.40;;
64199;SDS011;50516;52.272;5.136;2023-01-20T15:33:10;23.88;;;15.90;;
64199;SDS011;50516;52.272;5.136;2023-01-20T15:35:35;24.55;;;16.48;;
64199;SDS011;50516;52.272;5.136;2023-01-20T15:38:01;22.45;;;15.27;;
64199;SDS011;50516;52.272;5.136;2023-01-20T15:40:26;23.23;;;15.70;;
64199;SDS011;50516;52.272;5.136;2023-01-20T15:42:52;25.55;;;16.60;;
64199;SDS011;50516;52.272;5.136;2023-01-20T15:45:18;24.40;;;16.50;;
64199;SDS011;50516;52.272;5.136;2023-01-20T15:47:44;22.88;;;16.02;;
64199;SDS011;50516;52.272;5.136;2023-01-20T15:50:11;25.50;;;16.33;;
64199;SDS011;50516;52.272;5.136;2023-01-20T15:52:41;25.17;;;16.50;;
64199;SDS011;50516;52.272;5.136;2023-01-20T15:55:07;26.95;;;18.13;;
64199;SDS011;50516;52.272;5.136;2023-01-20T15:57:36;26.35;;;15.80;;
64199;SDS011;50516;52.272;5.136;2023-01-20T16:00:02;27.13;;;16.92;;
64199;SDS011;50516;52.272;5.136;2023-01-20T16:02:28;27.58;;;18.23;;
64199;SDS011;50516;52.272;5.136;2023-01-20T16:04:53;28.27;;;18.38;;
64199;SDS011;50516;52.272;5.136;2023-01-20T16:07:19;27.17;;;17.77;;
64199;SDS011;50516;52.272;5.136;2023-01-20T16:09:45;28.60;;;18.17;;
64199;SDS011;50516;52.272;5.136;2023-01-20T16:12:17;29.83;;;18.33;;
64199;SDS011;50516;52.272;5.136;2023-01-20T16:14:42;25.15;;;17.05;;
64199;SDS011;50516;52.272;5.136;2023-01-20T16:17:12;27.85;;;17.52;;
64199;SDS011;50516;52.272;5.136;2023-01-20T16:19:39;29.30;;;18.95;;
64199;SDS011;50516;52.272;5.136;2023-01-20T16:22:05;28.33;;;18.50;;
64199;SDS011;50516;52.272;5.136;2023-01-20T16:24:31;28.70;;;17.20;;
64199;SDS011;50516;52.272;5.136;2023-01-20T16:26:56;24.73;;;16.48;;
64199;SDS011;50516;52.272;5.136;2023-01-20T16:29:22;25.67;;;17.55;;